createdAt,value
2023-07-24T00:02:15.800Z,34.50
2023-07-24T00:04:48.574Z,34.30
2023-07-24T00:07:21.240Z,34.30
2023-07-24T00:09:54.039Z,34.20
2023-07-24T00:12:34.624Z,34.20
2023-07-24T00:15:13.702Z,34.00
2023-07-24T00:18:08.939Z,35.00
2023-07-24T00:20:50.526Z,33.90
2023-07-24T00:23:42.484Z,33.90
2023-07-24T00:26:23.884Z,33.80
2023-07-24T00:29:06.116Z,33.80
2023-07-24T00:31:39.775Z,33.70
2023-07-24T00:34:12.402Z,33.60
2023-07-24T00:36:46.277Z,33.50
2023-07-24T00:39:19.116Z,33.40
2023-07-24T00:41:51.800Z,33.30
2023-07-24T00:44:27.315Z,33.30
2023-07-24T00:47:00.779Z,33.20
2023-07-24T00:49:33.529Z,33.20
2023-07-24T00:52:06.591Z,33.10
2023-07-24T00:54:40.144Z,33.00
2023-07-24T00:57:12.781Z,32.90
2023-07-24T00:59:46.287Z,32.90
2023-07-24T01:02:18.978Z,32.80
2023-07-24T01:04:51.752Z,32.80
2023-07-24T01:07:26.236Z,32.80
2023-07-24T01:09:58.895Z,32.70
2023-07-24T01:12:37.841Z,32.60
2023-07-24T01:15:34.747Z,32.60
2023-07-24T01:18:10.600Z,32.60
2023-07-24T01:20:49.303Z,32.50
2023-07-24T01:23:55.624Z,32.40
2023-07-24T01:26:28.742Z,32.40
2023-07-24T01:29:01.525Z,32.30
2023-07-24T01:31:34.148Z,32.30
2023-07-24T01:34:06.904Z,32.10
2023-07-24T01:36:39.589Z,32.10
2023-07-24T01:39:12.659Z,32.00
2023-07-24T01:41:47.024Z,32.00
2023-07-24T01:44:19.867Z,31.90
2023-07-24T01:46:52.589Z,31.90
2023-07-24T01:49:28.042Z,31.70
2023-07-24T01:52:00.676Z,31.80
2023-07-24T01:54:36.256Z,31.60
2023-07-24T01:57:08.988Z,31.70
2023-07-24T01:59:41.651Z,31.80
2023-07-24T02:02:14.296Z,32.70
2023-07-24T02:04:48.012Z,31.80
2023-07-24T02:07:20.678Z,31.70
2023-07-24T02:09:53.385Z,31.70
2023-07-24T02:12:26.219Z,31.80
2023-07-24T02:14:58.935Z,31.80
2023-07-24T02:17:31.538Z,31.80
2023-07-24T02:20:04.536Z,31.90
2023-07-24T02:22:37.161Z,31.90
2023-07-24T02:25:12.059Z,31.90
2023-07-24T02:27:44.746Z,31.90
2023-07-24T02:30:17.412Z,31.90
2023-07-24T02:32:50.048Z,31.90
2023-07-24T02:35:22.636Z,31.90
2023-07-24T02:37:55.353Z,31.90
2023-07-24T02:40:27.957Z,32.00
2023-07-24T02:43:00.657Z,32.00
2023-07-24T02:45:36.097Z,31.90
2023-07-24T02:48:08.896Z,31.90
2023-07-24T02:50:41.466Z,32.00
2023-07-24T02:53:14.143Z,32.00
2023-07-24T02:55:46.803Z,32.00
2023-07-24T02:58:19.417Z,31.90
2023-07-24T03:00:54.502Z,31.80
2023-07-24T03:03:27.329Z,31.80
2023-07-24T03:06:00.127Z,31.80
2023-07-24T03:08:33.099Z,31.70
2023-07-24T03:11:07.214Z,31.70
2023-07-24T03:13:42.356Z,31.60
2023-07-24T03:16:15.068Z,31.50
2023-07-24T03:18:47.852Z,31.70
2023-07-24T03:21:21.884Z,31.70
2023-07-24T03:23:54.554Z,31.90
2023-07-24T03:26:27.247Z,32.20
2023-07-24T03:29:00.042Z,32.50
2023-07-24T03:31:32.693Z,32.70
2023-07-24T03:34:06.121Z,32.90
2023-07-24T03:36:42.604Z,33.10
2023-07-24T03:39:15.834Z,33.30
2023-07-24T03:41:48.576Z,33.50
2023-07-24T03:44:21.158Z,33.60
2023-07-24T03:46:53.844Z,33.80
2023-07-24T03:49:26.642Z,33.90
2023-07-24T03:51:59.313Z,33.90
2023-07-24T03:54:31.915Z,33.90
2023-07-24T03:57:04.867Z,33.90
2023-07-24T03:59:38.902Z,33.90
2023-07-24T04:02:12.082Z,33.80
2023-07-24T04:04:44.840Z,33.70
2023-07-24T04:07:17.435Z,34.50
2023-07-24T04:09:50.220Z,33.50
2023-07-24T04:12:22.894Z,33.50
2023-07-24T04:14:55.565Z,33.40
2023-07-24T04:17:28.219Z,33.40
2023-07-24T04:20:01.554Z,33.30
2023-07-24T04:22:34.184Z,33.30
2023-07-24T04:25:07.130Z,33.30
2023-07-24T04:27:39.721Z,33.10
2023-07-24T04:30:12.757Z,33.10
2023-07-24T04:32:45.615Z,33.10
2023-07-24T04:35:18.387Z,33.10
2023-07-24T04:37:52.693Z,33.00
2023-07-24T04:40:25.926Z,33.10
2023-07-24T04:42:59.391Z,33.10
2023-07-24T04:45:32.075Z,33.10
2023-07-24T04:48:05.103Z,33.10
2023-07-24T04:50:37.855Z,33.00
2023-07-24T04:53:10.518Z,33.00
2023-07-24T04:55:43.065Z,32.90
2023-07-24T04:58:17.120Z,32.90
2023-07-24T05:00:49.839Z,32.90
2023-07-24T05:03:22.469Z,32.80
2023-07-24T05:05:58.047Z,32.90
2023-07-24T05:08:30.663Z,32.80
2023-07-24T05:11:03.253Z,32.80
2023-07-24T05:13:35.971Z,32.80
2023-07-24T05:16:08.627Z,32.60
2023-07-24T05:18:41.227Z,32.60
2023-07-24T05:21:13.831Z,32.50
2023-07-24T05:23:46.593Z,32.50
2023-07-24T05:26:19.803Z,32.50
2023-07-24T05:28:54.017Z,32.40
2023-07-24T05:31:26.696Z,32.30
2023-07-24T05:33:59.396Z,32.00
2023-07-24T05:36:32.401Z,31.70
2023-07-24T05:39:05.277Z,31.40
2023-07-24T05:41:40.706Z,31.20
2023-07-24T05:44:13.675Z,30.90
2023-07-24T05:47:11.193Z,30.70
2023-07-24T05:49:45.038Z,30.50
2023-07-24T05:52:17.706Z,30.40
2023-07-24T05:54:50.474Z,30.10
2023-07-24T05:57:23.138Z,30.00
2023-07-24T05:59:56.220Z,30.00
2023-07-24T06:02:28.809Z,29.90
2023-07-24T06:05:01.497Z,29.70
2023-07-24T06:07:34.203Z,29.60
2023-07-24T06:10:07.243Z,29.50
2023-07-24T06:12:39.947Z,29.40
2023-07-24T06:15:12.556Z,29.30
2023-07-24T06:17:45.351Z,29.20
2023-07-24T06:20:21.005Z,29.10
2023-07-24T06:22:53.661Z,29.00
2023-07-24T06:25:26.433Z,28.90
2023-07-24T06:28:00.616Z,28.70
2023-07-24T06:30:33.311Z,28.70
2023-07-24T06:33:05.967Z,28.60
2023-07-24T06:35:38.751Z,28.40
2023-07-24T06:38:11.363Z,28.40
2023-07-24T06:40:44.086Z,28.30
2023-07-24T06:43:16.756Z,28.20
2023-07-24T06:45:49.392Z,28.00
2023-07-24T06:48:24.142Z,28.00
2023-07-24T06:50:57.182Z,27.90
2023-07-24T06:53:31.102Z,27.80
2023-07-24T06:56:03.779Z,27.70
2023-07-24T06:58:36.465Z,27.60
2023-07-24T07:01:09.302Z,27.40
2023-07-24T07:03:42.029Z,27.30
2023-07-24T07:08:51.246Z,27.10
2023-07-24T07:11:23.853Z,27.00
2023-07-24T07:13:57.277Z,26.90
2023-07-24T07:16:30.148Z,26.70
2023-07-24T07:19:03.090Z,26.60
2023-07-24T07:21:35.750Z,26.50
2023-07-24T07:24:08.348Z,26.50
2023-07-24T07:26:41.079Z,26.40
2023-07-24T07:29:13.646Z,26.30
2023-07-24T07:31:46.336Z,26.20
2023-07-24T07:34:18.900Z,26.10
2023-07-24T07:36:51.627Z,26.10
2023-07-24T07:39:24.197Z,26.10
2023-07-24T07:42:11.746Z,26.00
2023-07-24T07:44:49.641Z,25.90
2023-07-24T07:47:22.373Z,25.90
2023-07-24T07:49:55.009Z,25.80
2023-07-24T07:52:27.681Z,25.80
2023-07-24T07:55:00.675Z,25.60
2023-07-24T07:57:35.588Z,25.60
2023-07-24T08:00:10.130Z,25.50
2023-07-24T08:02:42.766Z,25.50
2023-07-24T08:05:20.872Z,25.40
2023-07-24T08:07:54.339Z,25.30
2023-07-24T08:10:26.973Z,25.20
2023-07-24T08:12:59.655Z,25.00
2023-07-24T08:15:39.225Z,25.00
2023-07-24T08:18:11.935Z,24.80
2023-07-24T08:20:44.614Z,24.80
2023-07-24T08:23:17.274Z,24.60
2023-07-24T08:25:56.423Z,24.60
2023-07-24T08:28:29.054Z,24.30
2023-07-24T08:31:06.634Z,24.30
2023-07-24T08:33:39.830Z,24.10
2023-07-24T08:36:15.433Z,24.20
2023-07-24T08:38:56.733Z,24.00
2023-07-24T08:41:30.071Z,23.90
2023-07-24T08:44:03.458Z,23.90
2023-07-24T08:46:47.054Z,23.80
2023-07-24T08:49:20.931Z,23.60
2023-07-24T08:51:53.884Z,23.40
2023-07-24T08:54:28.166Z,23.30
2023-07-24T08:57:09.717Z,23.40
2023-07-24T08:59:42.353Z,23.50
2023-07-24T09:02:15.135Z,23.30
2023-07-24T09:04:47.658Z,23.30
2023-07-24T09:07:20.599Z,23.40
2023-07-24T09:09:55.756Z,23.40
2023-07-24T09:12:28.466Z,23.50
2023-07-24T09:15:08.386Z,23.70
2023-07-24T09:17:50.364Z,23.60
2023-07-24T09:23:14.197Z,23.90
2023-07-24T09:25:48.152Z,23.90
2023-07-24T09:28:21.494Z,23.90
2023-07-24T09:30:59.176Z,23.90
2023-07-24T09:33:41.366Z,23.90
2023-07-24T09:36:14.225Z,23.70
2023-07-24T09:38:47.379Z,23.90
2023-07-24T09:41:29.179Z,23.90
2023-07-24T09:44:01.818Z,23.90
2023-07-24T09:49:18.126Z,23.90
2023-07-24T09:51:54.070Z,24.00
2023-07-24T09:54:32.892Z,24.10
2023-07-24T09:57:15.405Z,24.30
2023-07-24T09:59:54.968Z,24.40
2023-07-24T10:02:29.070Z,24.40
2023-07-24T10:05:02.994Z,24.40
2023-07-24T10:07:36.021Z,24.40
2023-07-24T10:10:09.277Z,24.40
2023-07-24T10:12:42.508Z,24.40
2023-07-24T10:15:15.806Z,24.20
2023-07-24T10:17:48.581Z,24.10
2023-07-24T10:20:21.417Z,24.10
2023-07-24T10:22:54.282Z,24.10
2023-07-24T10:25:32.663Z,24.10
2023-07-24T10:28:12.856Z,24.20
2023-07-24T10:30:45.883Z,24.30
2023-07-24T10:33:22.577Z,24.30
2023-07-24T10:36:04.451Z,24.20
2023-07-24T10:39:18.932Z,24.30
2023-07-24T10:42:07.755Z,24.30
2023-07-24T10:44:42.998Z,24.30
2023-07-24T10:47:17.827Z,24.40
2023-07-24T10:49:53.482Z,24.40
2023-07-24T10:52:34.035Z,24.50
2023-07-24T10:55:07.254Z,24.60
2023-07-24T10:57:43.039Z,24.80
2023-07-24T11:00:16.283Z,24.80
2023-07-24T11:02:48.931Z,24.90
2023-07-24T11:05:24.899Z,25.20
2023-07-24T11:07:57.697Z,25.20
2023-07-24T11:10:32.666Z,25.40
2023-07-24T11:13:11.214Z,25.50
2023-07-24T11:15:43.968Z,25.80
2023-07-24T11:18:17.335Z,26.00
2023-07-24T11:20:55.857Z,26.30
2023-07-24T11:23:29.568Z,26.40
2023-07-24T11:26:09.967Z,26.50
2023-07-24T11:28:43.122Z,26.70
2023-07-24T11:31:19.594Z,27.00
2023-07-24T11:33:57.269Z,27.30
2023-07-24T11:36:30.169Z,28.00
2023-07-24T11:39:03.096Z,28.10
2023-07-24T11:41:35.871Z,28.30
2023-07-24T11:44:08.815Z,28.40
2023-07-24T11:46:41.499Z,28.40
2023-07-24T11:49:16.333Z,28.40
2023-07-24T11:51:48.960Z,28.60
2023-07-24T11:54:21.480Z,29.00
2023-07-24T11:56:54.236Z,29.20
2023-07-24T11:59:27.879Z,29.40
2023-07-24T12:02:00.648Z,29.70
2023-07-24T12:04:33.580Z,29.90
2023-07-24T12:07:14.728Z,30.10
2023-07-24T12:09:56.629Z,30.30
2023-07-24T12:12:39.664Z,30.60
2023-07-24T12:15:14.349Z,31.10
2023-07-24T12:17:46.973Z,31.30
2023-07-24T12:20:20.289Z,31.60
2023-07-24T12:22:52.956Z,32.00
2023-07-24T12:25:26.170Z,31.90
2023-07-24T12:27:59.146Z,32.40
2023-07-24T12:30:31.830Z,32.50
2023-07-24T12:33:04.578Z,33.00
2023-07-24T12:35:37.234Z,33.30
2023-07-24T12:38:09.905Z,33.60
2023-07-24T12:40:42.463Z,34.10
2023-07-24T12:43:16.777Z,34.00
2023-07-24T12:45:49.603Z,33.70
2023-07-24T12:48:22.330Z,33.80
2023-07-24T12:50:55.695Z,33.90
2023-07-24T12:53:31.417Z,34.10
2023-07-24T12:56:20.509Z,33.90
2023-07-24T12:58:53.036Z,33.50
2023-07-24T13:01:25.923Z,33.00
2023-07-24T13:03:58.646Z,32.40
2023-07-24T13:06:34.007Z,31.10
2023-07-24T13:09:07.135Z,30.40
2023-07-24T13:11:39.771Z,30.00
2023-07-24T13:14:12.454Z,29.70
2023-07-24T13:16:45.354Z,29.70
2023-07-24T13:19:21.684Z,29.70
2023-07-24T13:21:54.538Z,29.70
2023-07-24T13:24:27.169Z,29.40
2023-07-24T13:26:59.823Z,28.60
2023-07-24T13:29:32.842Z,28.50
2023-07-24T13:32:05.798Z,28.40
2023-07-24T13:34:39.285Z,28.70
2023-07-24T13:37:13.937Z,29.10
2023-07-24T13:39:46.600Z,29.50
2023-07-24T13:42:19.334Z,29.70
2023-07-24T13:44:52.298Z,30.00
2023-07-24T13:47:24.982Z,30.10
2023-07-24T13:49:57.734Z,30.30
2023-07-24T13:52:31.528Z,30.30
2023-07-24T13:55:04.884Z,30.20
2023-07-24T13:57:37.483Z,30.10
2023-07-24T14:00:10.526Z,30.00
2023-07-24T14:02:47.899Z,30.00
2023-07-24T14:05:22.971Z,29.90
2023-07-24T14:07:55.707Z,29.70
2023-07-24T14:10:28.483Z,29.40
2023-07-24T14:13:01.109Z,29.20
2023-07-24T14:15:35.368Z,29.00
2023-07-24T14:18:08.032Z,28.80
2023-07-24T14:20:41.871Z,28.50
2023-07-24T14:23:14.749Z,28.20
2023-07-24T14:25:47.417Z,28.00
2023-07-24T14:28:20.175Z,27.80
2023-07-24T14:30:53.643Z,27.50
2023-07-24T14:33:28.777Z,27.50
2023-07-24T14:36:01.425Z,27.50
2023-07-24T14:38:34.333Z,27.60
2023-07-24T14:41:07.313Z,27.70
2023-07-24T14:43:46.691Z,28.00
2023-07-24T14:46:19.560Z,28.30
2023-07-24T14:48:54.152Z,28.50
2023-07-24T14:51:27.527Z,28.80
2023-07-24T14:54:01.361Z,28.70
2023-07-24T14:56:52.105Z,28.70
2023-07-24T14:59:30.504Z,28.40
2023-07-24T15:02:05.875Z,28.30
2023-07-24T15:04:38.690Z,28.30
2023-07-24T15:07:11.565Z,28.40
2023-07-24T15:09:44.715Z,28.40
2023-07-24T15:12:17.489Z,28.50
2023-07-24T15:14:50.279Z,28.40
2023-07-24T15:17:23.002Z,28.40
2023-07-24T15:19:55.693Z,28.50
2023-07-24T15:22:28.446Z,28.60
2023-07-24T15:25:06.135Z,28.80
2023-07-24T15:27:38.817Z,28.90
2023-07-24T15:30:11.665Z,29.30
2023-07-24T15:32:46.458Z,29.50
2023-07-24T15:35:19.433Z,29.70
2023-07-24T15:37:52.086Z,30.10
2023-07-24T15:40:24.908Z,30.40
2023-07-24T15:42:57.565Z,30.70
2023-07-24T15:45:30.509Z,30.90
2023-07-24T15:48:03.337Z,31.10
2023-07-24T15:50:35.962Z,31.20
2023-07-24T15:53:08.665Z,31.40
2023-07-24T15:55:41.329Z,31.40
2023-07-24T15:58:14.067Z,31.50
2023-07-24T16:00:46.850Z,31.40
2023-07-24T16:03:19.659Z,31.40
2023-07-24T16:05:52.329Z,31.30
2023-07-24T16:08:25.017Z,31.20
2023-07-24T16:10:58.731Z,31.10
2023-07-24T16:13:31.345Z,31.00
2023-07-24T16:16:04.355Z,30.80
2023-07-24T16:18:37.585Z,30.60
2023-07-24T16:21:10.449Z,30.40
2023-07-24T16:23:44.752Z,30.10
2023-07-24T16:26:20.102Z,30.00
2023-07-24T16:28:52.686Z,29.80
2023-07-24T16:31:31.201Z,29.70
2023-07-24T16:34:07.660Z,29.60
2023-07-24T16:36:41.216Z,29.50
2023-07-24T16:39:13.999Z,29.50
2023-07-24T16:41:50.747Z,29.50
2023-07-24T16:49:37.392Z,29.70
2023-07-24T16:52:10.400Z,29.70
2023-07-24T16:54:43.006Z,29.70
2023-07-24T16:57:17.983Z,29.60
2023-07-24T16:59:50.653Z,29.60
2023-07-24T17:02:23.796Z,29.50
2023-07-24T17:04:56.464Z,29.50
2023-07-24T17:07:29.125Z,29.40
2023-07-24T17:10:01.860Z,29.40
2023-07-24T17:12:34.487Z,29.30
2023-07-24T17:15:07.669Z,29.20
2023-07-24T17:17:40.338Z,29.20
2023-07-24T17:20:13.104Z,29.20
2023-07-24T17:22:45.714Z,29.10
2023-07-24T17:25:21.773Z,29.10
2023-07-24T17:27:54.432Z,29.00
2023-07-24T17:30:27.051Z,28.90
2023-07-24T17:33:00.699Z,28.90
2023-07-24T17:35:36.192Z,28.90
2023-07-24T17:38:08.728Z,28.80
2023-07-24T17:40:41.392Z,28.80
2023-07-24T17:43:13.964Z,28.70
2023-07-24T17:45:46.590Z,28.70
2023-07-24T17:48:19.214Z,28.60
2023-07-24T17:50:51.973Z,29.30
2023-07-24T17:53:24.720Z,28.50
2023-07-24T17:55:57.292Z,28.60
2023-07-24T17:58:29.947Z,28.60
2023-07-24T18:01:02.464Z,28.60
2023-07-24T18:03:35.314Z,29.30
2023-07-24T18:06:07.953Z,28.50
2023-07-24T18:08:40.714Z,28.70
2023-07-24T18:11:13.479Z,28.90
2023-07-24T18:13:46.152Z,29.00
2023-07-24T18:16:18.877Z,29.00
2023-07-24T18:18:51.607Z,29.20
2023-07-24T18:21:24.474Z,29.30
2023-07-24T18:23:58.256Z,29.50
2023-07-24T18:26:30.861Z,29.70
2023-07-24T18:29:04.489Z,29.80
2023-07-24T18:31:37.082Z,30.10
2023-07-24T18:34:09.738Z,30.60
2023-07-24T18:36:42.533Z,31.10
2023-07-24T18:39:16.111Z,31.50
2023-07-24T18:41:48.716Z,31.90
2023-07-24T18:44:21.727Z,33.40
2023-07-24T18:46:54.366Z,32.90
2023-07-24T18:49:27.133Z,33.30
2023-07-24T18:51:59.756Z,33.60
2023-07-24T18:54:32.377Z,33.90
2023-07-24T18:57:05.441Z,34.20
2023-07-24T18:59:38.164Z,34.30
2023-07-24T19:02:10.905Z,34.60
2023-07-24T19:04:43.437Z,34.80
2023-07-24T19:07:17.258Z,35.10
2023-07-24T19:09:49.948Z,35.40
2023-07-24T19:12:22.697Z,35.90
2023-07-24T19:14:55.278Z,36.00
2023-07-24T19:17:27.932Z,36.30
2023-07-24T19:20:00.640Z,36.50
2023-07-24T19:22:33.214Z,36.50
2023-07-24T19:25:07.193Z,36.50
2023-07-24T19:27:39.861Z,36.60
2023-07-24T19:30:12.986Z,36.50
2023-07-24T19:32:45.929Z,36.40
2023-07-24T19:35:20.800Z,36.20
2023-07-24T19:37:53.393Z,36.00
2023-07-24T19:40:26.058Z,35.90
2023-07-24T19:42:58.728Z,35.70
2023-07-24T19:45:33.122Z,35.50
2023-07-24T19:48:06.279Z,35.30
2023-07-24T19:50:38.919Z,35.10
2023-07-24T19:53:11.573Z,34.80
2023-07-24T19:55:44.166Z,34.70
2023-07-24T19:58:30.772Z,34.30
2023-07-24T20:01:05.615Z,34.20
2023-07-24T20:03:38.733Z,33.80
2023-07-24T20:06:12.174Z,33.30
2023-07-24T20:08:44.913Z,32.70
2023-07-24T20:11:17.632Z,32.30
2023-07-24T20:13:50.369Z,31.70
2023-07-24T20:16:22.941Z,31.10
2023-07-24T20:18:55.570Z,30.50
2023-07-24T20:21:29.291Z,30.00
2023-07-24T20:24:09.971Z,29.80
2023-07-24T20:26:42.698Z,29.40
2023-07-24T20:29:15.312Z,29.20
2023-07-24T20:31:47.960Z,28.90
2023-07-24T20:34:20.631Z,28.60
2023-07-24T20:36:53.176Z,28.40
2023-07-24T20:39:27.396Z,28.10
2023-07-24T20:42:00.055Z,27.80
2023-07-24T20:44:32.717Z,27.70
2023-07-24T20:47:05.697Z,27.50
2023-07-24T20:49:39.244Z,27.30
2023-07-24T20:52:11.771Z,27.20
2023-07-24T20:54:44.473Z,27.00
2023-07-24T20:57:17.111Z,26.90
2023-07-24T20:59:49.771Z,26.80
2023-07-24T21:02:22.355Z,27.60
2023-07-24T21:04:56.629Z,26.70
2023-07-24T21:07:29.236Z,26.60
2023-07-24T21:10:02.025Z,26.60
2023-07-24T21:12:34.711Z,26.50
2023-07-24T21:15:08.017Z,26.50
2023-07-24T21:17:40.696Z,26.50
2023-07-24T21:20:13.764Z,26.50
2023-07-24T21:22:46.374Z,26.40
2023-07-24T21:25:19.714Z,26.40
2023-07-24T21:27:52.263Z,26.40
2023-07-24T21:30:24.943Z,26.40
2023-07-24T21:32:57.614Z,26.40
2023-07-24T21:35:30.246Z,26.40
2023-07-24T21:38:02.887Z,26.30
2023-07-24T21:40:35.894Z,26.30
2023-07-24T21:43:08.975Z,26.40
2023-07-24T21:45:44.015Z,26.50
2023-07-24T21:48:17.030Z,26.50
2023-07-24T21:50:52.849Z,26.60
2023-07-24T21:53:25.562Z,26.40
2023-07-24T21:56:00.007Z,26.50
2023-07-24T21:58:32.727Z,27.30
2023-07-24T22:01:05.490Z,26.50
2023-07-24T22:03:38.168Z,26.50
2023-07-24T22:06:10.782Z,26.50
2023-07-24T22:08:43.443Z,26.50
2023-07-24T22:11:17.150Z,26.50
2023-07-24T22:13:49.754Z,26.50
2023-07-24T22:16:22.590Z,26.50
2023-07-24T22:18:55.212Z,26.50
2023-07-24T22:21:27.810Z,26.60
2023-07-24T22:24:00.421Z,26.60
2023-07-24T22:26:33.006Z,26.70
2023-07-24T22:29:05.623Z,26.70
2023-07-24T22:31:38.222Z,26.50
2023-07-24T22:34:11.770Z,26.50
2023-07-24T22:36:44.943Z,26.50
2023-07-24T22:39:17.608Z,26.50
2023-07-24T22:41:50.318Z,26.50
2023-07-24T22:44:22.874Z,26.60
2023-07-24T22:46:55.628Z,26.60
2023-07-24T22:49:28.401Z,26.60
2023-07-24T22:52:01.268Z,26.60
2023-07-24T22:54:33.825Z,26.60
2023-07-24T22:57:06.777Z,26.70
2023-07-24T22:59:39.525Z,26.70
2023-07-24T23:02:12.191Z,26.70
2023-07-24T23:07:42.223Z,26.60
2023-07-24T23:10:14.887Z,26.60
2023-07-24T23:12:48.658Z,26.50
2023-07-24T23:15:21.330Z,26.50
2023-07-24T23:17:53.927Z,26.50
2023-07-24T23:20:26.500Z,26.50
2023-07-24T23:22:59.145Z,26.40
2023-07-24T23:25:31.815Z,26.40
2023-07-24T23:28:04.608Z,26.40
2023-07-24T23:30:46.126Z,26.40
2023-07-24T23:33:19.125Z,26.40
2023-07-24T23:35:52.774Z,26.40
2023-07-24T23:38:25.386Z,26.30
2023-07-24T23:41:02.682Z,26.30
2023-07-24T23:43:35.548Z,26.30
2023-07-24T23:46:13.399Z,26.20
2023-07-24T23:48:46.112Z,26.10
2023-07-24T23:51:20.350Z,26.10
2023-07-24T23:53:53.017Z,26.10
2023-07-24T23:56:25.595Z,26.10
2023-07-24T23:58:58.249Z,26.10
